Time;durP1;ratioP1;P1;durP2;ratioP2;P2;SDS_P1;SDS_P2;PMS_P1;PMS_P2;Temp;Humidity;BMP_temperature;BMP_pressure;BME280_temperature;BME280_humidity;BME280_pressure;Samples;Min_cycle;Max_cycle;Signal;HPM_P1;HPM_P2
2022/09/24 00:00:51;;;;;;;;;;;11.20;99.90;;;;;;4854325;29;19987;-70
2022/09/24 00:03:20;;;;;;;;;;;11.20;99.90;;;;;;4854536;29;20196;-70
2022/09/24 00:05:46;;;;;;;;;;;11.20;99.90;;;;;;4889184;29;19912;-70
2022/09/24 00:08:13;;;;;;;;;;;11.20;99.90;;;;;;4872327;29;20123;-70
2022/09/24 00:10:39;;;;;;;;;;;11.20;99.90;;;;;;4871083;29;20242;-70
2022/09/24 00:13:06;;;;;;;;;;;11.20;99.90;;;;;;4868023;29;19919;-70
2022/09/24 00:15:36;;;;;;;;;;;11.30;99.90;;;;;;4883850;29;19944;-70
2022/09/24 00:18:02;;;;;;;;;;;11.30;99.90;;;;;;4853972;29;20112;-70
2022/09/24 00:20:31;;;;;;;;;;;11.20;99.90;;;;;;4854149;29;19924;-70
2022/09/24 00:22:58;;;;;;;;;;;11.20;99.90;;;;;;4883439;29;20201;-70
2022/09/24 00:28:18;;;;;;;;;;;11.20;99.90;;;;;;4868246;29;19916;-70
2022/09/24 00:30:44;;;;;;;;;;;11.20;99.90;;;;;;4853871;29;19920;-70
2022/09/24 00:33:10;;;;;;;;;;;11.20;99.90;;;;;;4853910;29;19983;-69
2022/09/24 00:35:36;;;;;;;;;;;11.20;99.90;;;;;;4868168;29;19920;-70
2022/09/24 00:38:02;;;;;;;;;;;11.20;99.90;;;;;;4871738;29;20089;-70
2022/09/24 00:40:32;;;;;;;;;;;11.10;99.90;;;;;;4872213;29;19974;-70
2022/09/24 00:42:58;;;;;;;;;;;11.10;99.90;;;;;;4872159;29;19931;-69
2022/09/24 00:45:24;;;;;;;;;;;11.20;99.90;;;;;;4872029;29;19932;-70
2022/09/24 00:47:50;;;;;;;;;;;11.10;99.90;;;;;;4870741;29;19912;-70
2022/09/24 00:50:23;;;;;;;;;;;11.00;99.90;;;;;;4872429;29;19982;-71
2022/09/24 00:52:54;;;;;;;;;;;11.10;99.90;;;;;;4869998;29;19912;-69
2022/09/24 00:55:20;;;;;;;;;;;11.00;99.90;;;;;;4870868;29;19940;-70
2022/09/24 00:57:47;;;;;;;;;;;11.00;99.90;;;;;;4870524;29;20294;-70
2022/09/24 01:00:14;;;;;;;;;;;11.00;99.90;;;;;;4871567;29;20125;-70
2022/09/24 01:02:41;;;;;;;;;;;11.00;99.90;;;;;;4871953;29;19916;-70
2022/09/24 01:05:09;;;;;;;;;;;11.10;99.90;;;;;;4871738;29;19912;-70
2022/09/24 01:07:34;;;;;;;;;;;11.00;99.90;;;;;;4871506;29;20020;-70
2022/09/24 01:10:01;;;;;;;;;;;11.10;99.90;;;;;;4871392;29;19943;-70
2022/09/24 01:12:48;;;;;;;;;;;11.00;99.90;;;;;;4871623;29;19912;-70
2022/09/24 01:15:19;;;;;;;;;;;11.00;99.90;;;;;;4870410;29;19912;-70
2022/09/24 01:18:10;;;;;;;;;;;11.00;99.90;;;;;;4870193;29;19979;-70
2022/09/24 01:20:50;;;;;;;;;;;11.00;99.90;;;;;;4870347;29;19943;-70
2022/09/24 01:23:54;;;;;;;;;;;11.00;99.90;;;;;;4870614;29;19920;-70
2022/09/24 01:26:38;;;;;;;;;;;11.00;99.90;;;;;;4870603;29;20245;-70
2022/09/24 01:29:24;;;;;;;;;;;11.10;99.90;;;;;;4871235;29;19973;-70
2022/09/24 01:31:52;;;;;;;;;;;11.10;99.90;;;;;;4870285;29;19912;-70
2022/09/24 01:34:19;;;;;;;;;;;11.10;99.90;;;;;;4870135;29;20193;-70
2022/09/24 01:36:45;;;;;;;;;;;11.10;99.90;;;;;;4870741;29;20215;-71
2022/09/24 01:39:13;;;;;;;;;;;11.10;99.90;;;;;;4868723;29;19981;-70
2022/09/24 01:41:39;;;;;;;;;;;11.10;99.90;;;;;;4869966;29;19931;-71
2022/09/24 01:44:06;;;;;;;;;;;11.10;99.90;;;;;;4869898;29;19912;-70
2022/09/24 01:46:32;;;;;;;;;;;11.10;99.90;;;;;;4870784;29;20222;-70
2022/09/24 01:48:58;;;;;;;;;;;11.10;99.90;;;;;;4869415;29;20203;-70
2022/09/24 01:51:33;;;;;;;;;;;11.00;99.90;;;;;;4869764;29;19931;-70
2022/09/24 01:54:11;;;;;;;;;;;11.00;99.90;;;;;;4869593;29;19995;-70
2022/09/24 01:56:44;;;;;;;;;;;10.90;99.90;;;;;;4869508;29;20114;-70
2022/09/24 01:59:18;;;;;;;;;;;10.90;99.90;;;;;;4869754;29;20215;-69
2022/09/24 02:01:47;;;;;;;;;;;10.90;99.90;;;;;;4868898;29;19927;-70
2022/09/24 02:04:15;;;;;;;;;;;10.80;99.90;;;;;;4869091;29;20222;-70
2022/09/24 02:07:04;;;;;;;;;;;10.70;99.90;;;;;;4868631;29;19955;-71
2022/09/24 02:09:31;;;;;;;;;;;10.70;99.90;;;;;;4864675;29;19980;-70
2022/09/24 02:11:58;;;;;;;;;;;10.70;99.90;;;;;;4869171;29;19928;-70
2022/09/24 02:14:23;;;;;;;;;;;10.70;99.90;;;;;;4868849;29;19920;-70
2022/09/24 02:16:51;;;;;;;;;;;10.70;99.90;;;;;;4868321;29;19916;-70
2022/09/24 02:19:18;;;;;;;;;;;10.70;99.90;;;;;;4868916;29;20122;-70
2022/09/24 02:21:44;;;;;;;;;;;10.60;99.90;;;;;;4868653;29;19971;-70
2022/09/24 02:24:18;;;;;;;;;;;10.60;99.90;;;;;;4869182;29;19996;-70
2022/09/24 02:26:44;;;;;;;;;;;10.60;99.90;;;;;;4868953;29;19920;-70
2022/09/24 02:29:09;;;;;;;;;;;10.60;99.90;;;;;;4884716;29;20258;-70
2022/09/24 02:31:43;;;;;;;;;;;10.60;99.90;;;;;;4868442;29;19916;-70
2022/09/24 02:34:19;;;;;;;;;;;10.50;99.90;;;;;;4877785;29;19920;-70
2022/09/24 02:36:50;;;;;;;;;;;10.50;99.90;;;;;;4868891;29;19936;-70
2022/09/24 02:39:16;;;;;;;;;;;10.50;99.90;;;;;;4868075;29;19916;-70
2022/09/24 02:41:44;;;;;;;;;;;10.50;99.90;;;;;;4869928;29;19920;-69
2022/09/24 02:44:10;;;;;;;;;;;10.50;99.90;;;;;;4869050;29;19912;-69
2022/09/24 02:46:40;;;;;;;;;;;10.50;99.90;;;;;;4865692;29;20211;-70
2022/09/24 02:49:06;;;;;;;;;;;10.40;99.90;;;;;;4869902;29;19939;-70
2022/09/24 02:51:32;;;;;;;;;;;10.40;99.90;;;;;;4870457;29;19929;-70
2022/09/24 02:53:58;;;;;;;;;;;10.40;99.90;;;;;;4869894;29;19954;-70
2022/09/24 02:56:24;;;;;;;;;;;10.40;99.90;;;;;;4868077;29;20130;-69
2022/09/24 02:58:50;;;;;;;;;;;10.40;99.90;;;;;;4869182;29;19983;-70
2022/09/24 03:01:15;;;;;;;;;;;10.50;99.90;;;;;;4869909;29;20148;-70
2022/09/24 03:03:41;;;;;;;;;;;10.50;99.90;;;;;;4869839;29;19922;-69
2022/09/24 03:06:07;;;;;;;;;;;10.50;99.90;;;;;;4869020;29;19912;-71
2022/09/24 03:08:34;;;;;;;;;;;10.50;99.90;;;;;;4868170;29;19957;-69
2022/09/24 03:10:59;;;;;;;;;;;10.50;99.90;;;;;;4869481;29;19951;-70
2022/09/24 03:13:25;;;;;;;;;;;10.50;99.90;;;;;;4869880;29;20263;-70
2022/09/24 03:15:50;;;;;;;;;;;10.50;99.90;;;;;;4870394;29;19919;-69
2022/09/24 03:18:16;;;;;;;;;;;10.50;99.90;;;;;;4869493;29;19916;-70
2022/09/24 03:20:42;;;;;;;;;;;10.50;99.90;;;;;;4869109;29;20203;-70
2022/09/24 03:23:07;;;;;;;;;;;10.60;99.90;;;;;;4869569;29;19973;-69
2022/09/24 03:25:33;;;;;;;;;;;10.60;99.90;;;;;;4869521;29;19920;-70
2022/09/24 03:27:59;;;;;;;;;;;10.60;99.90;;;;;;4869521;29;19919;-69
2022/09/24 03:33:09;;;;;;;;;;;10.60;99.90;;;;;;4869701;29;20389;-70
2022/09/24 03:35:34;;;;;;;;;;;10.60;99.90;;;;;;4869962;29;19912;-70
2022/09/24 03:38:00;;;;;;;;;;;10.60;99.90;;;;;;4869839;29;19943;-70
2022/09/24 03:40:26;;;;;;;;;;;10.60;99.90;;;;;;4868765;29;19993;-70
2022/09/24 03:42:51;;;;;;;;;;;10.60;99.90;;;;;;4869523;29;19916;-69
2022/09/24 03:45:17;;;;;;;;;;;10.60;99.90;;;;;;4869646;29;20203;-70
2022/09/24 03:47:43;;;;;;;;;;;10.60;99.90;;;;;;4868913;29;19920;-70
2022/09/24 03:50:11;;;;;;;;;;;10.50;99.90;;;;;;4869267;29;19931;-70
2022/09/24 03:52:39;;;;;;;;;;;10.40;99.90;;;;;;4869566;29;20111;-70
2022/09/24 03:55:06;;;;;;;;;;;10.40;99.90;;;;;;4869048;29;19995;-70
2022/09/24 03:57:32;;;;;;;;;;;10.40;99.90;;;;;;4868016;29;19979;-69
2022/09/24 03:59:58;;;;;;;;;;;10.40;99.90;;;;;;4869374;29;19919;-70
2022/09/24 04:02:23;;;;;;;;;;;10.40;99.90;;;;;;4872488;29;20050;-70
2022/09/24 04:04:49;;;;;;;;;;;10.40;99.90;;;;;;4902420;29;19912;-70
2022/09/24 04:07:15;;;;;;;;;;;10.40;99.90;;;;;;4872329;29;19959;-70
2022/09/24 04:09:40;;;;;;;;;;;10.40;99.90;;;;;;4858267;29;19983;-70
2022/09/24 04:12:06;;;;;;;;;;;10.50;99.90;;;;;;4866019;29;19916;-69
2022/09/24 04:14:32;;;;;;;;;;;10.50;99.90;;;;;;4870751;29;19979;-70
2022/09/24 04:16:57;;;;;;;;;;;10.50;99.90;;;;;;4871442;29;19919;-70
2022/09/24 04:19:25;;;;;;;;;;;10.50;99.90;;;;;;4872198;29;19986;-70
2022/09/24 04:21:51;;;;;;;;;;;10.50;99.90;;;;;;4873012;29;20124;-70
2022/09/24 04:24:17;;;;;;;;;;;10.50;99.90;;;;;;4868606;29;19923;-70
2022/09/24 04:26:42;;;;;;;;;;;10.50;99.90;;;;;;4868816;29;20197;-70
2022/09/24 04:29:08;;;;;;;;;;;10.50;99.90;;;;;;4869221;29;19923;-70
2022/09/24 04:31:34;;;;;;;;;;;10.50;99.90;;;;;;4869225;29;19924;-70
2022/09/24 04:33:59;;;;;;;;;;;10.50;99.90;;;;;;4868871;29;19916;-70
2022/09/24 04:36:25;;;;;;;;;;;10.50;99.90;;;;;;4868683;29;20207;-70
2022/09/24 04:38:51;;;;;;;;;;;10.50;99.90;;;;;;4868923;29;20105;-70
2022/09/24 04:41:16;;;;;;;;;;;10.50;99.90;;;;;;4868111;29;19916;-71
2022/09/24 04:43:42;;;;;;;;;;;10.50;99.90;;;;;;4868681;29;19926;-70
2022/09/24 04:46:11;;;;;;;;;;;10.50;99.90;;;;;;4868638;29;19923;-70
2022/09/24 04:48:37;;;;;;;;;;;10.50;99.90;;;;;;4870304;29;19923;-70
2022/09/24 04:51:04;;;;;;;;;;;10.50;99.90;;;;;;4870862;29;19916;-70
2022/09/24 04:53:31;;;;;;;;;;;10.50;99.90;;;;;;4853040;29;19924;-70
2022/09/24 04:55:58;;;;;;;;;;;10.50;99.90;;;;;;4867329;29;19930;-70
2022/09/24 04:58:25;;;;;;;;;;;10.40;99.90;;;;;;4871614;29;19927;-70
2022/09/24 05:00:51;;;;;;;;;;;10.40;99.90;;;;;;4870707;29;19912;-70
2022/09/24 05:03:16;;;;;;;;;;;10.40;99.90;;;;;;4870762;29;20233;-70
2022/09/24 05:05:42;;;;;;;;;;;10.40;99.90;;;;;;4871788;29;19920;-69
2022/09/24 05:08:07;;;;;;;;;;;10.40;99.90;;;;;;4870853;29;19918;-71
2022/09/24 05:10:33;;;;;;;;;;;10.30;99.90;;;;;;4871618;29;19931;-70
2022/09/24 05:12:59;;;;;;;;;;;10.40;99.90;;;;;;4866768;29;19920;-70
2022/09/24 05:15:25;;;;;;;;;;;10.30;99.90;;;;;;4871615;29;20163;-70
2022/09/24 05:17:50;;;;;;;;;;;10.20;99.90;;;;;;4870789;29;19944;-70
2022/09/24 05:20:16;;;;;;;;;;;10.20;99.90;;;;;;4871497;29;19912;-70
2022/09/24 05:22:45;;;;;;;;;;;10.20;99.90;;;;;;4871434;29;19923;-70
2022/09/24 05:25:11;;;;;;;;;;;10.20;99.90;;;;;;4871458;29;19920;-70
2022/09/24 05:27:43;;;;;;;;;;;10.20;99.90;;;;;;4871232;29;19947;-70
2022/09/24 05:30:09;;;;;;;;;;;10.20;99.90;;;;;;4871321;29;19931;-69
2022/09/24 05:32:35;;;;;;;;;;;10.10;99.90;;;;;;4870797;29;20243;-69
2022/09/24 05:35:01;;;;;;;;;;;10.10;99.90;;;;;;4871377;29;19960;-70
2022/09/24 05:37:26;;;;;;;;;;;10.00;99.90;;;;;;4871105;29;19915;-70
2022/09/24 05:39:53;;;;;;;;;;;10.00;99.90;;;;;;4869289;29;19912;-70
2022/09/24 05:42:19;;;;;;;;;;;10.00;99.90;;;;;;4870652;29;19928;-70
2022/09/24 05:44:45;;;;;;;;;;;10.00;99.90;;;;;;4870910;29;19912;-69
2022/09/24 05:47:10;;;;;;;;;;;10.00;99.90;;;;;;4870246;29;19912;-69
2022/09/24 05:49:36;;;;;;;;;;;10.10;99.90;;;;;;4870164;29;19920;-70
2022/09/24 05:52:02;;;;;;;;;;;10.10;99.90;;;;;;4870955;29;20128;-70
2022/09/24 05:54:27;;;;;;;;;;;10.10;99.90;;;;;;4865104;29;19921;-70
2022/09/24 05:56:53;;;;;;;;;;;10.10;99.90;;;;;;4868642;29;19924;-70
2022/09/24 05:59:19;;;;;;;;;;;10.20;99.90;;;;;;4870780;29;19920;-71
2022/09/24 06:01:44;;;;;;;;;;;10.20;99.90;;;;;;4870552;29;19922;-70
2022/09/24 06:04:13;;;;;;;;;;;10.20;99.90;;;;;;4870755;29;19935;-70
2022/09/24 06:06:39;;;;;;;;;;;10.30;99.90;;;;;;4870506;29;19920;-70
2022/09/24 06:09:05;;;;;;;;;;;10.30;99.90;;;;;;4869960;29;19975;-70
2022/09/24 06:11:33;;;;;;;;;;;10.30;99.90;;;;;;4864508;29;19916;-70
2022/09/24 06:14:01;;;;;;;;;;;10.30;99.90;;;;;;4869978;29;19936;-70
2022/09/24 06:16:27;;;;;;;;;;;10.30;99.90;;;;;;4868929;29;19919;-70
2022/09/24 06:18:53;;;;;;;;;;;10.30;99.90;;;;;;4870312;29;19916;-70
2022/09/24 06:21:18;;;;;;;;;;;10.40;99.90;;;;;;4869990;29;19920;-70
2022/09/24 06:23:44;;;;;;;;;;;10.40;99.90;;;;;;4869973;29;19920;-70
2022/09/24 06:26:11;;;;;;;;;;;10.40;99.90;;;;;;4869085;29;19916;-70
2022/09/24 06:28:36;;;;;;;;;;;10.40;99.90;;;;;;4870292;29;19946;-70
2022/09/24 06:31:02;;;;;;;;;;;10.40;99.90;;;;;;4868887;29;19924;-70
2022/09/24 06:33:29;;;;;;;;;;;10.40;99.90;;;;;;4869233;29;19935;-70
2022/09/24 06:35:58;;;;;;;;;;;10.40;99.90;;;;;;4870206;29;19949;-69
2022/09/24 06:38:24;;;;;;;;;;;10.40;99.90;;;;;;4870017;29;19926;-70
2022/09/24 06:40:49;;;;;;;;;;;10.30;99.90;;;;;;4870187;29;20152;-70
2022/09/24 06:43:16;;;;;;;;;;;10.30;99.90;;;;;;4868661;29;20152;-70
2022/09/24 06:45:42;;;;;;;;;;;10.30;99.90;;;;;;4869848;29;19960;-70
2022/09/24 06:48:09;;;;;;;;;;;10.40;99.90;;;;;;4868894;29;19924;-70
2022/09/24 06:50:38;;;;;;;;;;;10.40;99.90;;;;;;4868390;29;19917;-69
2022/09/24 06:53:05;;;;;;;;;;;10.40;99.90;;;;;;4869041;29;19920;-70
2022/09/24 06:55:30;;;;;;;;;;;10.40;99.90;;;;;;4870045;29;20246;-70
2022/09/24 06:58:07;;;;;;;;;;;10.50;99.90;;;;;;4869788;29;19983;-70
2022/09/24 07:00:32;;;;;;;;;;;10.50;99.90;;;;;;4869882;29;19983;-70
2022/09/24 07:02:58;;;;;;;;;;;10.60;99.90;;;;;;4869365;29;19923;-70
2022/09/24 07:05:24;;;;;;;;;;;10.70;99.90;;;;;;4869927;29;19920;-70
2022/09/24 07:07:49;;;;;;;;;;;10.80;99.90;;;;;;4869596;29;19918;-69
2022/09/24 07:10:16;;;;;;;;;;;10.90;99.90;;;;;;4869789;29;19937;-69
2022/09/24 07:12:41;;;;;;;;;;;11.00;99.90;;;;;;4869169;29;19916;-70
2022/09/24 07:15:08;;;;;;;;;;;11.20;99.90;;;;;;4869466;29;19920;-70
2022/09/24 07:17:33;;;;;;;;;;;11.30;99.90;;;;;;4868629;29;19917;-69
2022/09/24 07:19:59;;;;;;;;;;;11.40;99.90;;;;;;4868908;29;19927;-70
2022/09/24 07:22:25;;;;;;;;;;;11.50;99.90;;;;;;4868695;29;19916;-70
2022/09/24 07:24:52;;;;;;;;;;;11.60;99.90;;;;;;4869052;29;20825;-70
2022/09/24 07:27:20;;;;;;;;;;;11.70;99.90;;;;;;4868513;29;19912;-69
2022/09/24 07:29:48;;;;;;;;;;;11.80;99.90;;;;;;4869669;29;20351;-70
2022/09/24 07:32:15;;;;;;;;;;;11.80;99.90;;;;;;4868677;29;19960;-70
2022/09/24 07:34:40;;;;;;;;;;;11.90;99.90;;;;;;4869649;29;20203;-70
2022/09/24 07:37:06;;;;;;;;;;;12.00;99.90;;;;;;4872282;29;19912;-70
2022/09/24 07:39:32;;;;;;;;;;;12.00;99.90;;;;;;4871919;29;19927;-70
2022/09/24 07:42:00;;;;;;;;;;;12.10;99.90;;;;;;4872046;29;19924;-70
2022/09/24 07:44:26;;;;;;;;;;;12.10;99.90;;;;;;4872121;29;19920;-71
2022/09/24 07:46:51;;;;;;;;;;;12.10;99.90;;;;;;4872686;29;19961;-70
2022/09/24 07:49:17;;;;;;;;;;;12.20;99.90;;;;;;4871823;29;19981;-70
2022/09/24 07:51:43;;;;;;;;;;;12.20;99.90;;;;;;4871780;29;19940;-70
2022/09/24 07:54:09;;;;;;;;;;;12.20;99.90;;;;;;4869758;29;19923;-70
2022/09/24 07:56:35;;;;;;;;;;;12.20;99.90;;;;;;4881879;29;19932;-70
2022/09/24 07:59:00;;;;;;;;;;;12.30;99.90;;;;;;4872235;29;19982;-70
2022/09/24 08:01:26;;;;;;;;;;;12.40;99.90;;;;;;4872778;29;19912;-70
2022/09/24 08:03:52;;;;;;;;;;;12.50;99.90;;;;;;4871964;29;19936;-70
2022/09/24 08:06:18;;;;;;;;;;;12.60;99.90;;;;;;4872783;29;19916;-69
2022/09/24 08:08:47;;;;;;;;;;;12.70;99.90;;;;;;4868053;29;19925;-70
2022/09/24 08:11:13;;;;;;;;;;;12.80;99.90;;;;;;4867991;29;19913;-69
2022/09/24 08:13:38;;;;;;;;;;;12.90;99.90;;;;;;4865058;29;19960;-70
2022/09/24 08:16:04;;;;;;;;;;;12.90;99.90;;;;;;4872368;29;19920;-70
2022/09/24 08:18:30;;;;;;;;;;;13.00;99.90;;;;;;4871736;29;19917;-69
2022/09/24 08:21:08;;;;;;;;;;;13.10;99.90;;;;;;4866932;29;19919;-68
2022/09/24 08:23:34;;;;;;;;;;;13.20;99.90;;;;;;4868549;29;19924;-71
2022/09/24 08:25:59;;;;;;;;;;;13.30;99.90;;;;;;4882057;29;20110;-73
2022/09/24 08:28:25;;;;;;;;;;;13.30;99.90;;;;;;4872015;29;19985;-72
2022/09/24 08:30:51;;;;;;;;;;;13.30;99.90;;;;;;4872300;29;19918;-72
2022/09/24 08:33:16;;;;;;;;;;;13.40;99.90;;;;;;4870869;29;19913;-70
2022/09/24 08:35:42;;;;;;;;;;;13.40;99.90;;;;;;4871930;29;19983;-75
2022/09/24 08:38:08;;;;;;;;;;;13.40;99.90;;;;;;4869904;29;19961;-71
2022/09/24 08:40:44;;;;;;;;;;;13.50;99.90;;;;;;4871326;29;20119;-72
2022/09/24 08:43:49;;;;;;;;;;;13.70;99.90;;;;;;4846709;29;19920;-71
2022/09/24 08:49:30;;;;;;;;;;;13.80;99.90;;;;;;4866087;29;19931;-70
2022/09/24 08:52:08;;;;;;;;;;;13.90;99.90;;;;;;4871245;29;19916;-71
2022/09/24 08:54:34;;;;;;;;;;;13.90;99.90;;;;;;4867838;29;20211;-71
2022/09/24 08:57:02;;;;;;;;;;;14.00;99.90;;;;;;4868995;29;19923;-71
2022/09/24 08:59:36;;;;;;;;;;;14.00;99.90;;;;;;4870547;29;20195;-71
2022/09/24 09:02:30;;;;;;;;;;;14.20;99.90;;;;;;4869670;29;19964;-75
2022/09/24 09:05:06;;;;;;;;;;;14.40;99.90;;;;;;4869572;29;19964;-75
2022/09/24 09:07:38;;;;;;;;;;;14.40;99.90;;;;;;4870187;29;19920;-70
2022/09/24 09:10:09;;;;;;;;;;;14.60;99.90;;;;;;4870520;29;19920;-70
2022/09/24 09:12:37;;;;;;;;;;;14.60;99.90;;;;;;4870612;29;19911;-70
2022/09/24 09:15:02;;;;;;;;;;;14.70;99.90;;;;;;4870114;29;19912;-70
2022/09/24 09:17:35;;;;;;;;;;;14.80;99.90;;;;;;4871161;29;19931;-70
2022/09/24 09:20:04;;;;;;;;;;;14.80;99.90;;;;;;4869757;29;19986;-70
2022/09/24 09:22:34;;;;;;;;;;;14.80;99.90;;;;;;4853625;29;19958;-70
2022/09/24 09:25:08;;;;;;;;;;;14.90;99.90;;;;;;4868951;29;19912;-70
2022/09/24 09:27:34;;;;;;;;;;;15.00;99.90;;;;;;4869699;29;19920;-70
2022/09/24 09:30:03;;;;;;;;;;;15.10;99.90;;;;;;4871112;29;19953;-70
2022/09/24 09:32:41;;;;;;;;;;;15.20;99.90;;;;;;4869832;29;19927;-70
2022/09/24 09:35:13;;;;;;;;;;;15.20;99.90;;;;;;4871047;29;19918;-76
2022/09/24 09:37:54;;;;;;;;;;;15.30;99.90;;;;;;4869470;29;19927;-77
2022/09/24 09:41:11;;;;;;;;;;;15.30;99.90;;;;;;4869493;29;19912;-77
2022/09/24 09:43:37;;;;;;;;;;;15.40;99.90;;;;;;4849322;29;19916;-77
2022/09/24 09:46:24;;;;;;;;;;;15.50;99.90;;;;;;4870531;29;19916;-77
2022/09/24 09:48:55;;;;;;;;;;;15.60;99.90;;;;;;4869565;29;19918;-71
2022/09/24 09:51:23;;;;;;;;;;;15.60;99.90;;;;;;4869565;29;19952;-72
2022/09/24 09:53:59;;;;;;;;;;;15.60;99.90;;;;;;4868911;29;19920;-72
2022/09/24 09:56:29;;;;;;;;;;;15.60;99.90;;;;;;4869958;29;19983;-78
2022/09/24 09:59:05;;;;;;;;;;;15.70;99.90;;;;;;4870003;29;19912;-77
2022/09/24 10:01:32;;;;;;;;;;;15.80;99.90;;;;;;4869656;29;19946;-73
2022/09/24 10:04:02;;;;;;;;;;;15.80;99.90;;;;;;4865943;29;19912;-73
2022/09/24 10:06:28;;;;;;;;;;;15.80;99.90;;;;;;4880612;29;19919;-73
2022/09/24 10:09:11;;;;;;;;;;;15.80;99.90;;;;;;4852155;29;19920;-70
2022/09/24 10:11:36;;;;;;;;;;;15.80;99.90;;;;;;4869197;29;19916;-69
2022/09/24 10:14:03;;;;;;;;;;;15.90;99.90;;;;;;4869802;29;20178;-70
2022/09/24 10:16:28;;;;;;;;;;;15.90;99.90;;;;;;4869882;29;19920;-70
2022/09/24 10:18:54;;;;;;;;;;;16.00;99.90;;;;;;4870323;29;19912;-70
2022/09/24 10:21:33;;;;;;;;;;;16.10;99.90;;;;;;4869203;29;19961;-70
2022/09/24 10:24:00;;;;;;;;;;;16.20;99.90;;;;;;4867850;29;19925;-70
2022/09/24 10:26:40;;;;;;;;;;;16.20;99.90;;;;;;4868102;29;19916;-70
2022/09/24 10:32:05;;;;;;;;;;;16.40;99.90;;;;;;4885393;29;19947;-70
2022/09/24 10:34:30;;;;;;;;;;;16.40;99.90;;;;;;4865195;29;19912;-70
2022/09/24 10:37:11;;;;;;;;;;;16.40;99.90;;;;;;4881381;29;19920;-70
2022/09/24 10:39:37;;;;;;;;;;;16.40;99.90;;;;;;4858993;29;20199;-70
2022/09/24 10:42:04;;;;;;;;;;;16.50;99.90;;;;;;4869866;29;19924;-70
2022/09/24 10:44:34;;;;;;;;;;;16.50;99.90;;;;;;4868184;29;19990;-69
2022/09/24 10:47:31;;;;;;;;;;;16.50;99.90;;;;;;4868621;29;19912;-70
2022/09/24 10:49:56;;;;;;;;;;;16.60;99.90;;;;;;4869813;29;19916;-70
2022/09/24 10:53:02;;;;;;;;;;;16.60;99.90;;;;;;4869989;29;19912;-69
2022/09/24 10:56:00;;;;;;;;;;;16.60;99.90;;;;;;4898894;29;20026;-70
2022/09/24 10:58:35;;;;;;;;;;;16.70;99.90;;;;;;4863671;29;19913;-70
2022/09/24 11:01:18;;;;;;;;;;;16.70;99.90;;;;;;4851408;29;19920;-71
2022/09/24 11:03:55;;;;;;;;;;;16.80;99.90;;;;;;4868439;29;20018;-71
2022/09/24 11:06:59;;;;;;;;;;;16.80;99.90;;;;;;4849923;29;19959;-70
2022/09/24 11:09:35;;;;;;;;;;;16.90;99.90;;;;;;4866234;29;19943;-70
2022/09/24 11:12:06;;;;;;;;;;;16.90;99.90;;;;;;4888880;29;19975;-71
2022/09/24 11:14:43;;;;;;;;;;;16.90;99.90;;;;;;4872223;29;19920;-70
2022/09/24 11:17:53;;;;;;;;;;;16.90;99.90;;;;;;4867550;29;19927;-70
2022/09/24 11:20:29;;;;;;;;;;;17.00;99.90;;;;;;4854751;29;19959;-71
2022/09/24 11:23:14;;;;;;;;;;;17.00;99.90;;;;;;4871935;29;19920;-70
2022/09/24 11:25:49;;;;;;;;;;;17.00;99.90;;;;;;4865812;29;19930;-71
2022/09/24 11:28:15;;;;;;;;;;;17.00;99.90;;;;;;4868603;29;19912;-71
2022/09/24 11:30:50;;;;;;;;;;;17.00;99.90;;;;;;4883470;29;19913;-74
2022/09/24 11:33:28;;;;;;;;;;;17.00;99.90;;;;;;4859527;29;19912;-74
2022/09/24 11:36:19;;;;;;;;;;;17.00;99.90;;;;;;4871630;29;19927;-73
2022/09/24 11:38:54;;;;;;;;;;;17.00;99.90;;;;;;4883984;29;19916;-72
2022/09/24 11:41:46;;;;;;;;;;;17.00;99.90;;;;;;4872825;29;20205;-74
2022/09/24 11:44:26;;;;;;;;;;;17.10;99.90;;;;;;4852350;29;19988;-73
2022/09/24 11:47:04;;;;;;;;;;;17.10;99.90;;;;;;4870577;29;19916;-72
2022/09/24 11:49:32;;;;;;;;;;;17.10;99.90;;;;;;4870775;29;20040;-72
2022/09/24 11:52:27;;;;;;;;;;;17.10;99.90;;;;;;4872282;29;19916;-72
2022/09/24 11:55:17;;;;;;;;;;;17.10;99.90;;;;;;4869221;29;19930;-71
2022/09/24 11:57:56;;;;;;;;;;;17.10;99.90;;;;;;4872712;29;19956;-71
2022/09/24 12:00:22;;;;;;;;;;;17.10;99.90;;;;;;4870596;29;20031;-72
2022/09/24 12:03:30;;;;;;;;;;;17.10;99.90;;;;;;4872250;29;19999;-72
2022/09/24 12:05:59;;;;;;;;;;;17.20;99.90;;;;;;4895184;29;19916;-73
2022/09/24 12:08:26;;;;;;;;;;;17.50;99.90;;;;;;4867203;29;19925;-74
2022/09/24 12:10:56;;;;;;;;;;;18.10;99.90;;;;;;4868867;29;19922;-74
2022/09/24 12:13:48;;;;;;;;;;;18.40;99.90;;;;;;4869729;29;19928;-74
2022/09/24 12:16:15;;;;;;;;;;;19.20;99.90;;;;;;4877476;29;19924;-74
2022/09/24 12:18:46;;;;;;;;;;;20.20;99.90;;;;;;4870217;29;19912;-76
2022/09/24 12:21:16;;;;;;;;;;;20.80;99.90;;;;;;4868224;29;20115;-77
2022/09/24 12:23:43;;;;;;;;;;;21.20;99.90;;;;;;4884325;29;19927;-72
2022/09/24 12:26:09;;;;;;;;;;;21.30;99.90;;;;;;4868680;29;20041;-73
2022/09/24 12:34:55;;;;;;;;;;;20.90;99.90;;;;;;4871744;29;20230;-72
2022/09/24 12:37:24;;;;;;;;;;;20.80;99.90;;;;;;4870823;29;20053;-72
2022/09/24 12:39:55;;;;;;;;;;;20.60;99.90;;;;;;4870530;29;19956;-72
2022/09/24 12:42:21;;;;;;;;;;;20.40;99.90;;;;;;4868285;29;20107;-71
2022/09/24 12:44:51;;;;;;;;;;;20.10;99.90;;;;;;4870596;29;19958;-71
2022/09/24 12:47:22;;;;;;;;;;;20.00;99.90;;;;;;4869876;29;19916;-71
2022/09/24 12:50:02;;;;;;;;;;;19.90;99.90;;;;;;4870685;29;20130;-71
2022/09/24 12:52:38;;;;;;;;;;;19.70;99.90;;;;;;4869922;29;20203;-71
2022/09/24 12:55:04;;;;;;;;;;;19.60;99.90;;;;;;4897451;29;19927;-71
2022/09/24 12:57:34;;;;;;;;;;;19.50;99.90;;;;;;4869949;29;19994;-72
2022/09/24 13:00:40;;;;;;;;;;;19.40;99.90;;;;;;4883319;29;19919;-72
2022/09/24 13:03:06;;;;;;;;;;;19.20;99.90;;;;;;4868921;29;19920;-71
2022/09/24 13:05:33;;;;;;;;;;;19.10;99.90;;;;;;4871517;29;19916;-71
2022/09/24 13:08:01;;;;;;;;;;;19.10;99.90;;;;;;4870757;29;19927;-71
2022/09/24 13:10:34;;;;;;;;;;;19.10;99.90;;;;;;4869447;29;19919;-70
2022/09/24 13:13:00;;;;;;;;;;;19.10;99.90;;;;;;4870404;29;19919;-68
2022/09/24 13:15:37;;;;;;;;;;;19.10;99.90;;;;;;4851556;29;19920;-71
2022/09/24 13:18:09;;;;;;;;;;;19.30;99.90;;;;;;4866354;29;20242;-70
2022/09/24 13:20:40;;;;;;;;;;;19.30;99.90;;;;;;4852022;29;19919;-71
2022/09/24 13:23:18;;;;;;;;;;;19.30;99.90;;;;;;4866142;29;20211;-69
2022/09/24 13:26:06;;;;;;;;;;;19.40;99.90;;;;;;4852592;29;19927;-72
2022/09/24 13:28:51;;;;;;;;;;;19.50;99.90;;;;;;4880440;29;19999;-71
2022/09/24 13:31:21;;;;;;;;;;;20.30;99.90;;;;;;4869969;29;19912;-71
2022/09/24 13:34:05;;;;;;;;;;;21.50;99.90;;;;;;4868855;29;19947;-72
2022/09/24 13:36:56;;;;;;;;;;;22.70;99.90;;;;;;4871021;29;20152;-71
2022/09/24 13:39:26;;;;;;;;;;;23.50;98.80;;;;;;4870044;29;19990;-72
2022/09/24 13:41:56;;;;;;;;;;;23.70;93.70;;;;;;4869047;29;19916;-71
2022/09/24 13:44:23;;;;;;;;;;;23.50;91.60;;;;;;4866716;29;19912;-71
2022/09/24 13:46:52;;;;;;;;;;;23.60;91.40;;;;;;4868857;29;19927;-71
2022/09/24 13:49:18;;;;;;;;;;;23.60;90.30;;;;;;4851263;29;19912;-71
2022/09/24 13:51:46;;;;;;;;;;;23.30;91.50;;;;;;4851576;29;19920;-72
2022/09/24 13:54:16;;;;;;;;;;;23.10;93.60;;;;;;4851353;29;19948;-72
2022/09/24 13:56:54;;;;;;;;;;;22.60;94.30;;;;;;4864593;29;20174;-73
2022/09/24 13:59:19;;;;;;;;;;;22.40;96.00;;;;;;4864815;29;20115;-72
2022/09/24 14:01:45;;;;;;;;;;;22.40;94.80;;;;;;4860938;29;19937;-72
2022/09/24 14:04:19;;;;;;;;;;;22.20;94.80;;;;;;4868396;29;20229;-73
2022/09/24 14:06:50;;;;;;;;;;;22.10;96.30;;;;;;4866184;29;19923;-72
2022/09/24 14:09:27;;;;;;;;;;;21.80;96.40;;;;;;4866974;29;19979;-72
2022/09/24 14:11:55;;;;;;;;;;;21.50;96.60;;;;;;4867958;29;19916;-71
2022/09/24 14:14:23;;;;;;;;;;;21.30;98.20;;;;;;4898228;29;20362;-72
2022/09/24 14:16:49;;;;;;;;;;;21.10;98.80;;;;;;4867077;29;19991;-72
2022/09/24 14:19:15;;;;;;;;;;;21.00;99.70;;;;;;4868171;29;19916;-73
2022/09/24 14:21:51;;;;;;;;;;;20.90;97.30;;;;;;4868231;29;20179;-72
2022/09/24 14:24:25;;;;;;;;;;;20.80;97.20;;;;;;4883171;29;20025;-73
2022/09/24 14:26:57;;;;;;;;;;;20.50;99.90;;;;;;4866698;29;19916;-74
2022/09/24 14:29:24;;;;;;;;;;;20.40;99.90;;;;;;4867768;29;19916;-74
2022/09/24 14:31:54;;;;;;;;;;;20.40;99.90;;;;;;4868657;29;19916;-75
2022/09/24 14:34:22;;;;;;;;;;;20.60;99.90;;;;;;4866569;29;19960;-73
2022/09/24 14:36:49;;;;;;;;;;;21.00;98.80;;;;;;4868010;29;19928;-73
2022/09/24 14:39:15;;;;;;;;;;;21.30;97.60;;;;;;4867162;29;19916;-74
2022/09/24 14:41:41;;;;;;;;;;;21.40;96.00;;;;;;4868932;29;19912;-74
2022/09/24 14:44:27;;;;;;;;;;;21.30;95.80;;;;;;4866927;29;19924;-74
2022/09/24 14:46:54;;;;;;;;;;;21.30;96.90;;;;;;4866413;29;19966;-74
2022/09/24 14:49:28;;;;;;;;;;;21.00;97.40;;;;;;4868452;29;19916;-73
2022/09/24 14:52:02;;;;;;;;;;;20.80;99.00;;;;;;4869051;29;19920;-73